createdAt,value
2016-10-25T00:00:34.636Z,-92
2016-10-25T00:01:34.681Z,-92
2016-10-25T00:02:34.727Z,-92
2016-10-25T00:03:34.690Z,-91
2016-10-25T00:04:35.139Z,-92
2016-10-25T00:05:34.623Z,-91
2016-10-25T00:06:34.791Z,-92
2016-10-25T00:07:34.711Z,-91
2016-10-25T00:08:34.595Z,-91
2016-10-25T00:09:34.834Z,-91
2016-10-25T00:10:34.885Z,-91
2016-10-25T00:11:34.660Z,-92
2016-10-25T00:12:34.699Z,-92
2016-10-25T00:13:34.729Z,-92
2016-10-25T00:14:34.674Z,-91
2016-10-25T00:15:34.604Z,-92
2016-10-25T00:16:34.804Z,-92
2016-10-25T00:17:34.741Z,-92
2016-10-25T00:18:34.722Z,-92
2016-10-25T00:19:34.710Z,-92
2016-10-25T00:20:34.886Z,-91
2016-10-25T00:21:34.627Z,-92
2016-10-25T00:22:34.885Z,-91
2016-10-25T00:23:34.832Z,-92
2016-10-25T00:24:34.760Z,-91
2016-10-25T00:25:34.752Z,-92
2016-10-25T00:26:34.826Z,-91
2016-10-25T00:27:34.763Z,-91
2016-10-25T00:28:34.624Z,-92
2016-10-25T00:29:34.771Z,-91
2016-10-25T00:30:34.795Z,-91
2016-10-25T00:31:34.757Z,-92
2016-10-25T00:32:34.769Z,-92
2016-10-25T00:33:34.827Z,-92
2016-10-25T00:34:34.744Z,-92
2016-10-25T00:35:34.807Z,-91
2016-10-25T00:36:35.035Z,-92
2016-10-25T00:37:34.818Z,-92
2016-10-25T00:38:34.857Z,-92
2016-10-25T00:39:34.840Z,-92
2016-10-25T00:40:34.756Z,-91
2016-10-25T00:41:34.871Z,-91
2016-10-25T00:42:34.732Z,-92
2016-10-25T00:43:34.775Z,-92
2016-10-25T00:44:34.860Z,-92
2016-10-25T00:45:34.759Z,-91
2016-10-25T00:46:34.823Z,-92
2016-10-25T00:47:34.908Z,-92
2016-10-25T00:48:34.853Z,-92
2016-10-25T00:49:34.791Z,-92
2016-10-25T00:50:34.874Z,-92
2016-10-25T00:51:34.856Z,-92
2016-10-25T00:52:34.969Z,-92
2016-10-25T00:53:34.808Z,-92
2016-10-25T00:54:34.850Z,-92
2016-10-25T00:55:34.930Z,-92
2016-10-25T00:56:34.779Z,-92
2016-10-25T00:57:34.778Z,-92
2016-10-25T00:58:34.863Z,-92
2016-10-25T00:59:34.835Z,-92
2016-10-25T01:00:34.825Z,-92
2016-10-25T01:01:35.012Z,-92
2016-10-25T01:02:34.901Z,-93
2016-10-25T01:03:34.940Z,-92
2016-10-25T01:04:34.958Z,-92
2016-10-25T01:05:34.828Z,-92
2016-10-25T01:06:34.899Z,-92
2016-10-25T01:07:34.883Z,-93
2016-10-25T01:08:34.981Z,-93
2016-10-25T01:09:35.000Z,-92
2016-10-25T01:10:34.924Z,-93
2016-10-25T01:11:34.900Z,-93
2016-10-25T01:12:34.797Z,-92
2016-10-25T01:13:34.917Z,-92
2016-10-25T01:14:34.894Z,-92
2016-10-25T01:15:34.950Z,-92
2016-10-25T01:16:34.782Z,-92
2016-10-25T01:17:34.790Z,-92
2016-10-25T01:18:34.929Z,-93
2016-10-25T01:19:34.957Z,-93
2016-10-25T01:20:34.902Z,-91
2016-10-25T01:21:34.959Z,-91
2016-10-25T01:22:34.862Z,-91
2016-10-25T01:23:34.870Z,-91
2016-10-25T01:24:35.012Z,-91
2016-10-25T01:25:34.836Z,-92
2016-10-25T01:26:34.902Z,-92
2016-10-25T01:27:34.945Z,-92
2016-10-25T01:28:34.945Z,-93
2016-10-25T01:29:34.927Z,-92
2016-10-25T01:30:34.896Z,-94
2016-10-25T01:31:34.993Z,-93
2016-10-25T01:32:34.931Z,-93
2016-10-25T01:33:35.141Z,-93
2016-10-25T01:34:35.200Z,-93
2016-10-25T01:35:34.986Z,-93
2016-10-25T01:36:35.038Z,-93
2016-10-25T01:37:35.036Z,-93
2016-10-25T01:38:34.991Z,-92
2016-10-25T01:39:34.928Z,-94
2016-10-25T01:40:35.097Z,-93
2016-10-25T01:41:34.932Z,-93
2016-10-25T01:42:34.958Z,-93
2016-10-25T01:43:34.980Z,-93
2016-10-25T01:44:35.014Z,-93
2016-10-25T01:45:34.920Z,-94
2016-10-25T01:46:35.016Z,-92
2016-10-25T01:47:35.080Z,-93
2016-10-25T01:48:34.866Z,-93
2016-10-25T01:49:35.178Z,-93
2016-10-25T01:50:35.069Z,-93
2016-10-25T01:51:34.913Z,-93
2016-10-25T01:52:34.907Z,-93
2016-10-25T01:53:34.887Z,-93
2016-10-25T01:54:34.973Z,-93
2016-10-25T01:55:34.983Z,-93
2016-10-25T01:56:35.151Z,-93
2016-10-25T01:57:34.982Z,-93
2016-10-25T01:58:35.060Z,-94
2016-10-25T01:59:35.189Z,-93
2016-10-25T02:00:35.168Z,-93
2016-10-25T02:01:35.027Z,-93
2016-10-25T02:02:35.036Z,-93
2016-10-25T02:03:35.014Z,-93
2016-10-25T02:04:35.088Z,-93
2016-10-25T02:05:35.106Z,-94
2016-10-25T02:06:35.099Z,-93
2016-10-25T02:07:35.038Z,-93
2016-10-25T02:08:35.085Z,-93
2016-10-25T02:09:35.051Z,-93
2016-10-25T02:10:35.002Z,-93
2016-10-25T02:11:35.096Z,-93
2016-10-25T02:12:35.257Z,-93
2016-10-25T02:13:35.103Z,-93
2016-10-25T02:14:34.977Z,-93
2016-10-25T02:15:35.115Z,-94
2016-10-25T02:16:35.145Z,-93
2016-10-25T02:17:35.104Z,-94
2016-10-25T02:18:34.956Z,-93
2016-10-25T02:19:35.040Z,-93
2016-10-25T02:20:35.048Z,-93
2016-10-25T02:21:35.220Z,-94
2016-10-25T02:22:35.140Z,-93
2016-10-25T02:23:35.045Z,-94
2016-10-25T02:24:35.087Z,-93
2016-10-25T02:25:35.017Z,-94
2016-10-25T02:26:35.163Z,-93
2016-10-25T02:27:35.103Z,-94
2016-10-25T02:28:35.371Z,-93
2016-10-25T02:29:35.077Z,-93
2016-10-25T02:30:35.175Z,-93
2016-10-25T02:31:35.186Z,-94
2016-10-25T02:32:35.093Z,-94
2016-10-25T02:33:35.160Z,-94
2016-10-25T02:34:35.059Z,-94
2016-10-25T02:35:35.074Z,-94
2016-10-25T02:36:35.132Z,-94
2016-10-25T02:37:35.371Z,-94
2016-10-25T02:38:35.113Z,-93
2016-10-25T02:39:35.140Z,-94
2016-10-25T02:40:35.100Z,-93
2016-10-25T02:41:35.174Z,-93
2016-10-25T02:42:35.198Z,-93
2016-10-25T02:43:35.088Z,-94
2016-10-25T02:44:35.197Z,-94
2016-10-25T02:45:35.154Z,-94
2016-10-25T02:46:35.139Z,-94
2016-10-25T02:47:35.041Z,-94
2016-10-25T02:48:35.209Z,-94
2016-10-25T02:49:35.186Z,-93
2016-10-25T02:50:35.268Z,-94
2016-10-25T02:51:35.152Z,-94
2016-10-25T02:52:35.051Z,-94
2016-10-25T02:53:35.301Z,-94
2016-10-25T02:54:35.144Z,-94
2016-10-25T02:55:35.101Z,-94
2016-10-25T02:56:35.286Z,-94
2016-10-25T02:57:35.154Z,-94
2016-10-25T02:58:35.149Z,-93
2016-10-25T02:59:35.172Z,-93
2016-10-25T03:00:35.293Z,-94
2016-10-25T03:01:35.130Z,-94
2016-10-25T03:02:35.161Z,-94
2016-10-25T03:03:35.129Z,-95
2016-10-25T03:04:35.237Z,-94
2016-10-25T03:05:35.177Z,-93
2016-10-25T03:06:35.236Z,-93
2016-10-25T03:07:35.187Z,-94
2016-10-25T03:08:35.232Z,-94
2016-10-25T03:09:35.382Z,-94
2016-10-25T03:10:35.192Z,-93
2016-10-25T03:11:35.238Z,-94
2016-10-25T03:12:35.083Z,-93
2016-10-25T03:13:35.147Z,-93
2016-10-25T03:14:35.180Z,-94
2016-10-25T03:15:35.273Z,-94
2016-10-25T03:16:35.330Z,-94
2016-10-25T03:17:35.164Z,-93
2016-10-25T03:18:35.311Z,-94
2016-10-25T03:19:35.193Z,-94
2016-10-25T03:20:35.281Z,-94
2016-10-25T03:21:35.301Z,-94
2016-10-25T03:22:35.172Z,-94
2016-10-25T03:23:35.227Z,-94
2016-10-25T03:24:35.214Z,-93
2016-10-25T03:25:35.470Z,-93
2016-10-25T03:26:35.344Z,-94
2016-10-25T03:27:35.256Z,-94
2016-10-25T03:28:35.275Z,-94
2016-10-25T03:29:35.305Z,-94
2016-10-25T03:30:36.793Z,-93
2016-10-25T03:31:35.332Z,-93
2016-10-25T03:32:35.333Z,-93
2016-10-25T03:33:35.306Z,-95
2016-10-25T03:34:35.243Z,-94
2016-10-25T03:35:35.245Z,-93
2016-10-25T03:36:35.291Z,-93
2016-10-25T03:37:35.312Z,-93
2016-10-25T03:38:35.313Z,-93
2016-10-25T03:39:35.378Z,-94
2016-10-25T03:40:35.192Z,-94
2016-10-25T03:41:35.481Z,-94
2016-10-25T03:42:35.316Z,-93
2016-10-25T03:43:35.350Z,-94
2016-10-25T03:44:35.413Z,-94
2016-10-25T03:45:35.340Z,-94
2016-10-25T03:46:35.261Z,-94
2016-10-25T03:47:35.329Z,-94
2016-10-25T03:48:35.425Z,-93
2016-10-25T03:49:35.244Z,-94
2016-10-25T03:50:35.413Z,-94
2016-10-25T03:51:35.265Z,-94
2016-10-25T03:52:35.340Z,-93
2016-10-25T03:53:35.393Z,-94
2016-10-25T03:54:35.348Z,-93
2016-10-25T03:55:35.256Z,-93
2016-10-25T03:56:35.394Z,-93
2016-10-25T03:57:35.430Z,-95
2016-10-25T03:58:35.377Z,-94
2016-10-25T03:59:35.445Z,-93
2016-10-25T04:00:35.391Z,-93
2016-10-25T04:01:35.375Z,-92
2016-10-25T04:02:35.458Z,-90
2016-10-25T04:03:35.269Z,-89
2016-10-25T04:04:35.648Z,-90
2016-10-25T04:05:35.393Z,-93
2016-10-25T04:06:35.286Z,-93
2016-10-25T04:07:35.413Z,-94
2016-10-25T04:08:35.332Z,-93
2016-10-25T04:09:35.369Z,-93
2016-10-25T04:10:35.369Z,-94
2016-10-25T04:11:35.310Z,-93
2016-10-25T04:12:35.456Z,-93
2016-10-25T04:13:35.354Z,-94
2016-10-25T04:14:35.401Z,-93
2016-10-25T04:15:35.456Z,-94
2016-10-25T04:16:35.397Z,-94
2016-10-25T04:17:35.405Z,-94
2016-10-25T04:18:35.430Z,-94
2016-10-25T04:19:35.374Z,-94
2016-10-25T04:20:35.564Z,-94
2016-10-25T04:21:35.345Z,-93
2016-10-25T04:22:35.495Z,-94
2016-10-25T04:23:35.408Z,-93
2016-10-25T04:24:35.471Z,-93
2016-10-25T04:25:35.607Z,-94
2016-10-25T04:26:35.440Z,-94
2016-10-25T04:27:35.497Z,-94
2016-10-25T04:28:35.376Z,-93
2016-10-25T04:29:35.484Z,-94
2016-10-25T04:30:35.497Z,-94
2016-10-25T04:31:35.281Z,-93
2016-10-25T04:32:35.454Z,-94
2016-10-25T04:33:35.318Z,-93
2016-10-25T04:34:35.390Z,-93
2016-10-25T04:35:35.469Z,-93
2016-10-25T04:36:35.579Z,-94
2016-10-25T04:37:35.414Z,-94
2016-10-25T04:38:35.500Z,-93
2016-10-25T04:39:35.476Z,-93
2016-10-25T04:40:35.510Z,-94
2016-10-25T04:41:35.465Z,-93
2016-10-25T04:42:35.544Z,-94
2016-10-25T04:43:35.555Z,-93
2016-10-25T04:44:35.559Z,-94
2016-10-25T04:45:35.560Z,-94
2016-10-25T04:46:35.609Z,-93
2016-10-25T04:47:35.436Z,-93
2016-10-25T04:48:35.440Z,-94
2016-10-25T04:49:35.526Z,-93
2016-10-25T04:50:35.490Z,-93
2016-10-25T04:51:35.525Z,-93
2016-10-25T04:52:35.642Z,-93
2016-10-25T04:53:35.494Z,-94
2016-10-25T04:54:35.475Z,-93
2016-10-25T04:55:35.519Z,-94
2016-10-25T04:56:35.407Z,-94
2016-10-25T04:57:35.597Z,-94
2016-10-25T04:58:35.551Z,-94
2016-10-25T04:59:35.520Z,-94
2016-10-25T05:00:35.409Z,-93
2016-10-25T05:01:35.503Z,-94
2016-10-25T05:02:35.581Z,-94
2016-10-25T05:03:35.539Z,-93
2016-10-25T05:04:35.587Z,-93
2016-10-25T05:05:35.492Z,-93
2016-10-25T05:06:35.555Z,-93
2016-10-25T05:07:35.643Z,-93
2016-10-25T05:08:35.744Z,-94
2016-10-25T05:09:35.621Z,-94
2016-10-25T05:10:35.571Z,-94
2016-10-25T05:11:35.525Z,-93
2016-10-25T05:12:35.620Z,-93
2016-10-25T05:13:35.747Z,-93
2016-10-25T05:14:35.650Z,-93
2016-10-25T05:15:35.626Z,-93
2016-10-25T05:16:35.647Z,-93
2016-10-25T05:17:35.656Z,-93
2016-10-25T05:18:35.580Z,-93
2016-10-25T05:19:35.654Z,-93
2016-10-25T05:20:35.631Z,-94
2016-10-25T05:21:35.626Z,-93
2016-10-25T05:22:35.618Z,-94
2016-10-25T05:23:35.641Z,-93
2016-10-25T05:24:35.761Z,-93
2016-10-25T05:25:35.752Z,-94
2016-10-25T05:26:35.729Z,-93
2016-10-25T05:27:35.666Z,-93
2016-10-25T05:28:35.628Z,-94
2016-10-25T05:29:35.629Z,-94
2016-10-25T05:30:35.944Z,-94
2016-10-25T05:31:35.634Z,-93
2016-10-25T05:32:35.661Z,-94
2016-10-25T05:33:35.745Z,-94
2016-10-25T05:34:35.822Z,-93
2016-10-25T05:35:35.657Z,-94
2016-10-25T05:36:35.687Z,-93
2016-10-25T05:37:35.638Z,-94
2016-10-25T05:38:35.648Z,-93
2016-10-25T05:39:35.600Z,-93
2016-10-25T05:40:35.899Z,-93
2016-10-25T05:41:35.714Z,-94
2016-10-25T05:42:35.664Z,-94
2016-10-25T05:43:35.644Z,-94
2016-10-25T05:44:35.674Z,-94
2016-10-25T05:45:35.531Z,-94
2016-10-25T05:46:35.649Z,-94
2016-10-25T05:47:35.730Z,-94
2016-10-25T05:48:35.649Z,-94
2016-10-25T05:49:35.609Z,-94
2016-10-25T05:50:35.741Z,-93
2016-10-25T05:51:35.601Z,-94
2016-10-25T05:52:35.666Z,-94
2016-10-25T05:53:35.842Z,-94
2016-10-25T05:54:35.755Z,-93
2016-10-25T05:55:35.684Z,-93
2016-10-25T05:56:35.872Z,-94
2016-10-25T05:57:35.655Z,-94
2016-10-25T05:58:35.605Z,-94
2016-10-25T05:59:35.668Z,-93
2016-10-25T06:00:35.734Z,-94
2016-10-25T06:01:35.694Z,-94
2016-10-25T06:02:35.738Z,-94
2016-10-25T06:03:35.725Z,-93
2016-10-25T06:04:35.730Z,-91
2016-10-25T06:05:35.722Z,-89
2016-10-25T06:06:35.786Z,-89
2016-10-25T06:07:35.874Z,-89
2016-10-25T06:08:35.837Z,-90
2016-10-25T06:09:35.960Z,-89
2016-10-25T06:10:35.794Z,-89
2016-10-25T06:11:35.854Z,-89
2016-10-25T06:12:35.983Z,-89
2016-10-25T06:13:35.900Z,-89
2016-10-25T06:14:35.783Z,-89
2016-10-25T06:15:35.721Z,-89
2016-10-25T06:16:35.875Z,-89
2016-10-25T06:17:35.880Z,-89
2016-10-25T06:18:35.817Z,-89
2016-10-25T06:19:35.897Z,-89
2016-10-25T06:20:35.646Z,-89
2016-10-25T06:21:35.854Z,-89
2016-10-25T06:22:35.725Z,-88
2016-10-25T06:23:35.775Z,-89
2016-10-25T06:24:35.688Z,-89
2016-10-25T06:25:35.686Z,-88
2016-10-25T06:26:35.834Z,-89
2016-10-25T06:27:35.766Z,-89
2016-10-25T06:28:35.883Z,-89
2016-10-25T06:29:36.086Z,-90
2016-10-25T06:30:35.799Z,-89
2016-10-25T06:31:35.754Z,-89
2016-10-25T06:32:35.755Z,-90
2016-10-25T06:33:35.894Z,-89
2016-10-25T06:34:35.706Z,-89
2016-10-25T06:35:35.810Z,-89
2016-10-25T06:36:35.879Z,-89
2016-10-25T06:37:35.909Z,-89
2016-10-25T06:38:35.912Z,-89
2016-10-25T06:39:35.963Z,-89
2016-10-25T06:40:36.249Z,-90
2016-10-25T06:41:35.884Z,-88
2016-10-25T06:42:35.830Z,-90
2016-10-25T06:43:35.823Z,-90
2016-10-25T06:44:36.213Z,-90
2016-10-25T06:45:35.783Z,-89
2016-10-25T06:46:35.857Z,-89
2016-10-25T06:47:35.746Z,-89
2016-10-25T06:48:35.924Z,-89
2016-10-25T06:49:35.955Z,-89
2016-10-25T06:50:35.839Z,-89
2016-10-25T06:51:35.868Z,-89
2016-10-25T06:52:35.860Z,-89
2016-10-25T06:53:35.852Z,-89
2016-10-25T06:54:35.826Z,-89
2016-10-25T06:55:35.839Z,-89
2016-10-25T06:56:35.865Z,-89
2016-10-25T06:57:35.838Z,-89
2016-10-25T06:58:35.953Z,-89
2016-10-25T06:59:35.898Z,-89
2016-10-25T07:00:35.947Z,-89
2016-10-25T07:01:35.895Z,-89
2016-10-25T07:02:35.926Z,-89
2016-10-25T07:03:35.805Z,-89
2016-10-25T07:04:36.013Z,-89
2016-10-25T07:05:36.058Z,-89
2016-10-25T07:06:35.962Z,-88
2016-10-25T07:07:36.050Z,-89
2016-10-25T07:08:35.954Z,-89
2016-10-25T07:09:35.855Z,-89
2016-10-25T07:10:35.919Z,-89
2016-10-25T07:11:35.958Z,-89
2016-10-25T07:12:36.007Z,-89
2016-10-25T07:13:35.827Z,-89
2016-10-25T07:14:35.875Z,-89
2016-10-25T07:15:35.983Z,-89
2016-10-25T07:16:36.231Z,-89
2016-10-25T07:17:35.979Z,-89
2016-10-25T07:18:35.963Z,-88
2016-10-25T07:19:36.586Z,-89
2016-10-25T07:20:36.036Z,-89
2016-10-25T07:21:36.025Z,-89
2016-10-25T07:22:36.052Z,-90
2016-10-25T07:23:36.213Z,-89
2016-10-25T07:24:36.038Z,-89
2016-10-25T07:25:35.920Z,-89
2016-10-25T07:26:36.000Z,-89
2016-10-25T07:27:35.957Z,-89
2016-10-25T07:28:36.012Z,-90
2016-10-25T07:29:36.126Z,-89
2016-10-25T07:30:36.001Z,-89
2016-10-25T07:31:36.071Z,-89
2016-10-25T07:32:36.306Z,-89
2016-10-25T07:33:35.914Z,-89
2016-10-25T07:34:36.111Z,-89
2016-10-25T07:35:36.120Z,-89
2016-10-25T07:36:36.052Z,-90
2016-10-25T07:37:36.040Z,-89
2016-10-25T07:38:36.046Z,-90
2016-10-25T07:39:36.153Z,-89
2016-10-25T07:40:36.010Z,-89
2016-10-25T07:41:36.003Z,-89
2016-10-25T07:42:36.279Z,-89
2016-10-25T07:43:36.119Z,-89
2016-10-25T07:44:37.250Z,-89
2016-10-25T07:45:36.036Z,-89
2016-10-25T07:46:36.081Z,-89
2016-10-25T07:47:36.181Z,-89
2016-10-25T07:48:36.121Z,-90
2016-10-25T07:49:36.180Z,-89
2016-10-25T07:50:36.074Z,-90
2016-10-25T07:51:36.091Z,-89
2016-10-25T07:52:36.117Z,-89
2016-10-25T07:53:36.396Z,-89
2016-10-25T07:54:36.064Z,-89
2016-10-25T07:55:36.015Z,-89
2016-10-25T07:56:36.214Z,-89
2016-10-25T07:57:36.085Z,-89
2016-10-25T07:58:36.171Z,-89
2016-10-25T07:59:36.115Z,-89
2016-10-25T08:00:36.247Z,-89
2016-10-25T08:01:36.075Z,-90
2016-10-25T08:02:36.180Z,-90
2016-10-25T08:03:36.181Z,-90
2016-10-25T08:04:36.393Z,-90
2016-10-25T08:05:53.400Z,-90
2016-10-25T08:06:36.308Z,-89
2016-10-25T08:07:38.479Z,-89
2016-10-25T08:08:36.400Z,-89
2016-10-25T08:09:36.299Z,-89
2016-10-25T08:10:45.144Z,-90
2016-10-25T08:11:36.163Z,-90
2016-10-25T08:12:47.895Z,-89
2016-10-25T08:13:38.323Z,-89
2016-10-25T08:14:36.168Z,-89
2016-10-25T08:15:36.266Z,-89
2016-10-25T08:16:36.235Z,-89
2016-10-25T08:17:36.396Z,-89
2016-10-25T08:18:36.139Z,-89
2016-10-25T08:19:36.172Z,-89
2016-10-25T08:20:36.243Z,-89
2016-10-25T08:21:36.635Z,-89
2016-10-25T08:22:36.189Z,-89
2016-10-25T08:23:36.123Z,-89
2016-10-25T08:24:36.759Z,-89
2016-10-25T08:25:36.281Z,-89
2016-10-25T08:26:36.769Z,-89
2016-10-25T08:27:36.361Z,-89
2016-10-25T08:28:36.177Z,-89
2016-10-25T08:29:36.250Z,-89
2016-10-25T08:30:36.299Z,-89
2016-10-25T08:31:37.189Z,-89
2016-10-25T08:32:36.071Z,-89
2016-10-25T08:33:36.843Z,-89
2016-10-25T08:34:36.242Z,-88
2016-10-25T08:35:36.110Z,-88
2016-10-25T08:36:36.605Z,-88
2016-10-25T08:37:36.611Z,-88
2016-10-25T08:38:36.324Z,-88
2016-10-25T08:39:36.253Z,-88
2016-10-25T08:40:36.118Z,-88
2016-10-25T08:41:36.250Z,-88
2016-10-25T08:42:36.486Z,-87
2016-10-25T08:43:36.330Z,-88
2016-10-25T08:44:36.322Z,-87
2016-10-25T08:45:36.311Z,-88
2016-10-25T08:46:36.475Z,-88
2016-10-25T08:47:36.473Z,-88
2016-10-25T08:48:36.252Z,-88
2016-10-25T08:49:36.202Z,-88
2016-10-25T08:50:36.224Z,-88
2016-10-25T08:51:36.150Z,-88
2016-10-25T08:52:36.337Z,-87
2016-10-25T08:53:36.194Z,-88
2016-10-25T08:54:36.439Z,-87
2016-10-25T08:55:36.362Z,-88
2016-10-25T08:56:36.288Z,-87
2016-10-25T08:57:36.339Z,-87
2016-10-25T08:58:36.310Z,-88
2016-10-25T08:59:36.412Z,-88
2016-10-25T09:00:36.561Z,-87
2016-10-25T09:01:36.672Z,-88
2016-10-25T09:02:36.312Z,-87
2016-10-25T09:03:36.376Z,-87
2016-10-25T09:04:36.366Z,-88
2016-10-25T09:05:36.450Z,-87
2016-10-25T09:06:36.265Z,-87
2016-10-25T09:07:36.225Z,-88
2016-10-25T09:08:37.073Z,-87
2016-10-25T09:09:36.249Z,-87
2016-10-25T09:10:36.183Z,-87
2016-10-25T09:11:37.755Z,-87
2016-10-25T09:12:36.205Z,-87
2016-10-25T09:13:36.804Z,-87
2016-10-25T09:14:36.241Z,-88
2016-10-25T09:15:36.430Z,-87
2016-10-25T09:16:36.471Z,-87
2016-10-25T09:17:36.447Z,-86
2016-10-25T09:18:36.447Z,-87
2016-10-25T09:19:36.464Z,-87
2016-10-25T09:20:36.535Z,-87
2016-10-25T09:21:36.470Z,-88
2016-10-25T09:22:36.406Z,-88
2016-10-25T09:23:37.064Z,-88
2016-10-25T09:24:36.701Z,-88
2016-10-25T09:25:38.067Z,-88
2016-10-25T09:26:36.483Z,-87
2016-10-25T09:27:36.502Z,-88
2016-10-25T09:28:36.361Z,-88
2016-10-25T09:29:36.379Z,-88
2016-10-25T09:30:37.147Z,-88
2016-10-25T09:31:36.660Z,-87
2016-10-25T09:32:36.534Z,-88
2016-10-25T09:33:37.009Z,-88
2016-10-25T09:34:36.749Z,-88
2016-10-25T09:35:36.334Z,-88
2016-10-25T09:36:37.886Z,-88
2016-10-25T09:37:36.272Z,-88
2016-10-25T09:38:36.398Z,-88
2016-10-25T09:39:36.296Z,-88
2016-10-25T09:40:36.436Z,-89
2016-10-25T09:41:36.315Z,-87
2016-10-25T09:42:36.346Z,-88
2016-10-25T09:43:37.145Z,-89
2016-10-25T09:44:36.465Z,-88
2016-10-25T09:45:36.506Z,-87
2016-10-25T09:46:37.327Z,-88
2016-10-25T09:47:36.686Z,-88
2016-10-25T09:48:36.629Z,-87
2016-10-25T09:49:36.350Z,-88
2016-10-25T09:50:36.434Z,-88
2016-10-25T09:51:36.300Z,-88
2016-10-25T09:52:36.639Z,-88
2016-10-25T09:53:36.423Z,-87
2016-10-25T09:54:36.417Z,-87
2016-10-25T09:55:36.411Z,-87
2016-10-25T09:56:36.662Z,-87
2016-10-25T09:57:36.302Z,-87
2016-10-25T09:58:36.390Z,-88
2016-10-25T09:59:36.533Z,-87
2016-10-25T10:00:36.402Z,-87
2016-10-25T10:01:36.446Z,-87
2016-10-25T10:02:36.357Z,-87
2016-10-25T10:03:36.358Z,-88
2016-10-25T10:04:36.626Z,-88
2016-10-25T10:05:36.484Z,-87
2016-10-25T10:06:36.644Z,-87
2016-10-25T10:07:37.094Z,-87
2016-10-25T10:08:36.335Z,-87
2016-10-25T10:09:36.611Z,-87
2016-10-25T10:10:36.546Z,-87
2016-10-25T10:11:36.426Z,-87
2016-10-25T10:12:36.833Z,-88
2016-10-25T10:13:36.592Z,-88
2016-10-25T10:14:36.518Z,-87
2016-10-25T10:15:36.415Z,-87
2016-10-25T10:16:36.518Z,-87
2016-10-25T10:17:38.620Z,-88
2016-10-25T10:18:36.427Z,-88
2016-10-25T10:19:36.645Z,-88
2016-10-25T10:20:36.437Z,-88
2016-10-25T10:21:36.536Z,-88
2016-10-25T10:22:36.689Z,-88
2016-10-25T10:23:36.816Z,-89
2016-10-25T10:24:36.545Z,-89
2016-10-25T10:25:36.553Z,-88
2016-10-25T10:26:36.528Z,-88
2016-10-25T10:27:36.499Z,-88
2016-10-25T10:28:36.762Z,-89
2016-10-25T10:29:36.314Z,-88
2016-10-25T10:30:36.429Z,-89
2016-10-25T10:31:36.514Z,-88
2016-10-25T10:32:36.542Z,-88
2016-10-25T10:33:36.604Z,-88
2016-10-25T10:34:36.520Z,-88
2016-10-25T10:35:37.240Z,-89
2016-10-25T10:36:36.421Z,-89
2016-10-25T10:37:36.622Z,-88
2016-10-25T10:38:36.473Z,-89
2016-10-25T10:39:36.576Z,-89
2016-10-25T10:40:37.107Z,-88
2016-10-25T10:41:36.560Z,-88
2016-10-25T10:42:36.574Z,-89
2016-10-25T10:43:36.560Z,-88
2016-10-25T10:44:36.745Z,-89
2016-10-25T10:45:36.574Z,-89
2016-10-25T10:46:36.681Z,-90
2016-10-25T10:47:36.685Z,-89
2016-10-25T10:48:36.492Z,-87
2016-10-25T10:49:38.474Z,-88
2016-10-25T10:50:36.465Z,-88
2016-10-25T10:51:36.562Z,-89
2016-10-25T10:52:36.607Z,-88
2016-10-25T10:53:36.601Z,-88
2016-10-25T10:54:36.517Z,-88
2016-10-25T10:55:36.472Z,-89
2016-10-25T10:56:36.721Z,-89
2016-10-25T10:57:36.663Z,-88
2016-10-25T10:58:36.551Z,-89
2016-10-25T10:59:36.485Z,-88
2016-10-25T11:00:36.815Z,-87
2016-10-25T11:01:36.623Z,-86
2016-10-25T11:02:36.547Z,-88
2016-10-25T11:03:36.598Z,-88
2016-10-25T11:04:36.550Z,-88
2016-10-25T11:05:36.534Z,-88
2016-10-25T11:06:36.684Z,-88
2016-10-25T11:07:36.711Z,-88
2016-10-25T11:08:36.668Z,-88
2016-10-25T11:09:36.596Z,-89
2016-10-25T11:10:36.735Z,-89
2016-10-25T11:11:36.700Z,-88
2016-10-25T11:12:36.790Z,-89
2016-10-25T11:13:36.688Z,-88
2016-10-25T11:14:36.520Z,-88
2016-10-25T11:15:36.673Z,-90
2016-10-25T11:16:37.041Z,-88
2016-10-25T11:17:36.544Z,-89
2016-10-25T11:18:37.392Z,-88
2016-10-25T11:19:36.624Z,-88
2016-10-25T11:20:36.675Z,-89
2016-10-25T11:21:36.660Z,-89
2016-10-25T11:22:36.664Z,-89
2016-10-25T11:23:36.756Z,-89
2016-10-25T11:24:36.729Z,-89
2016-10-25T11:25:36.788Z,-87
2016-10-25T11:26:37.027Z,-89
2016-10-25T11:27:36.919Z,-88
2016-10-25T11:28:37.522Z,-88
2016-10-25T11:29:36.797Z,-88
2016-10-25T11:30:36.597Z,-88
2016-10-25T11:31:37.264Z,-88
2016-10-25T11:32:36.677Z,-87
2016-10-25T11:33:36.693Z,-88
2016-10-25T11:34:36.638Z,-88
2016-10-25T11:35:36.665Z,-88
2016-10-25T11:36:36.731Z,-88
2016-10-25T11:37:36.724Z,-88
2016-10-25T11:38:36.610Z,-88
2016-10-25T11:39:37.550Z,-88
2016-10-25T11:40:36.708Z,-88
2016-10-25T11:41:36.882Z,-88
2016-10-25T11:42:36.612Z,-89
2016-10-25T11:43:36.692Z,-89
2016-10-25T11:44:36.791Z,-90
2016-10-25T11:45:36.864Z,-89
2016-10-25T11:46:36.815Z,-89
2016-10-25T11:47:36.726Z,-89
2016-10-25T11:48:36.925Z,-89
2016-10-25T11:49:36.856Z,-90
2016-10-25T11:50:36.660Z,-88
2016-10-25T11:51:36.793Z,-87
2016-10-25T11:52:36.861Z,-88
2016-10-25T11:53:37.506Z,-87
2016-10-25T11:54:36.834Z,-89
2016-10-25T11:55:36.798Z,-89
2016-10-25T11:56:36.755Z,-88
2016-10-25T11:57:36.764Z,-88
2016-10-25T11:58:36.725Z,-88
2016-10-25T11:59:36.951Z,-89
2016-10-25T12:00:36.654Z,-88
2016-10-25T12:01:36.735Z,-88
2016-10-25T12:02:36.806Z,-88
2016-10-25T12:03:36.863Z,-88
2016-10-25T12:04:38.165Z,-89
2016-10-25T12:05:37.107Z,-89
2016-10-25T12:06:36.743Z,-89
2016-10-25T12:07:36.746Z,-89
2016-10-25T12:08:37.280Z,-89
2016-10-25T12:09:36.811Z,-89
2016-10-25T12:10:36.757Z,-90
2016-10-25T12:11:36.890Z,-90
2016-10-25T12:12:37.203Z,-90
2016-10-25T12:13:36.801Z,-90
2016-10-25T12:14:38.645Z,-91
2016-10-25T12:15:36.820Z,-90
2016-10-25T12:16:36.939Z,-91
2016-10-25T12:17:36.918Z,-90
2016-10-25T12:18:36.910Z,-90
2016-10-25T12:19:36.805Z,-90
2016-10-25T12:20:36.953Z,-91
2016-10-25T12:21:36.666Z,-90
2016-10-25T12:22:36.813Z,-89
2016-10-25T12:23:36.814Z,-89
2016-10-25T12:24:37.098Z,-89
2016-10-25T12:25:36.815Z,-90
2016-10-25T12:26:36.795Z,-90
2016-10-25T12:27:36.863Z,-89
2016-10-25T12:28:36.891Z,-89
2016-10-25T12:29:37.025Z,-89
2016-10-25T12:30:37.005Z,-89
2016-10-25T12:31:36.820Z,-89
2016-10-25T12:32:36.784Z,-89
2016-10-25T12:33:37.665Z,-90
2016-10-25T12:34:36.901Z,-89
2016-10-25T12:35:38.324Z,-89
2016-10-25T12:36:37.716Z,-88
2016-10-25T12:37:36.893Z,-88
2016-10-25T12:38:37.557Z,-89
2016-10-25T12:39:36.967Z,-89
2016-10-25T12:40:36.918Z,-90
2016-10-25T12:41:36.997Z,-88
2016-10-25T12:42:36.951Z,-88
2016-10-25T12:43:37.351Z,-88
2016-10-25T12:44:36.955Z,-88
2016-10-25T12:45:36.800Z,-89
2016-10-25T12:46:37.634Z,-90
2016-10-25T12:47:36.963Z,-90
2016-10-25T12:48:37.025Z,-89
2016-10-25T12:49:36.903Z,-89
2016-10-25T12:50:36.869Z,-89
2016-10-25T12:51:36.907Z,-90
2016-10-25T12:52:36.950Z,-89
2016-10-25T12:53:36.961Z,-89
2016-10-25T12:54:36.792Z,-90
2016-10-25T12:55:36.980Z,-91
2016-10-25T12:56:37.013Z,-91
2016-10-25T12:57:36.972Z,-89
2016-10-25T12:58:37.587Z,-89
2016-10-25T12:59:37.138Z,-89
2016-10-25T13:00:36.983Z,-90
2016-10-25T13:01:37.019Z,-91
2016-10-25T13:02:37.044Z,-88
2016-10-25T13:03:36.988Z,-88
2016-10-25T13:04:36.910Z,-89
2016-10-25T13:05:37.103Z,-89
2016-10-25T13:06:36.919Z,-89
2016-10-25T13:07:37.045Z,-88
2016-10-25T13:08:36.996Z,-90
2016-10-25T13:09:36.908Z,-89
2016-10-25T13:10:37.075Z,-90
2016-10-25T13:11:36.932Z,-90
2016-10-25T13:12:37.100Z,-90
2016-10-25T13:13:36.846Z,-89
2016-10-25T13:14:36.945Z,-89
2016-10-25T13:15:37.100Z,-90
2016-10-25T13:16:37.004Z,-88
2016-10-25T13:17:37.079Z,-89
2016-10-25T13:18:37.112Z,-90
2016-10-25T13:19:36.829Z,-90
2016-10-25T13:20:37.054Z,-90
2016-10-25T13:21:36.927Z,-90
2016-10-25T13:22:36.973Z,-90
2016-10-25T13:23:37.009Z,-90
2016-10-25T13:24:37.136Z,-90
2016-10-25T13:25:37.131Z,-89
2016-10-25T13:26:37.549Z,-89
2016-10-25T13:27:37.062Z,-87
2016-10-25T13:28:36.933Z,-88
2016-10-25T13:29:38.877Z,-91
2016-10-25T13:30:37.060Z,-92
2016-10-25T13:31:37.017Z,-91
2016-10-25T13:32:36.885Z,-92
2016-10-25T13:33:37.065Z,-92
2016-10-25T13:34:37.145Z,-91
2016-10-25T13:35:37.362Z,-91
2016-10-25T13:36:36.992Z,-91
2016-10-25T13:37:36.925Z,-91
2016-10-25T13:38:36.957Z,-93
2016-10-25T13:39:37.155Z,-92
2016-10-25T13:40:37.270Z,-92
2016-10-25T13:41:37.115Z,-92
2016-10-25T13:42:37.183Z,-91
2016-10-25T13:43:37.045Z,-91
2016-10-25T13:44:37.002Z,-92
2016-10-25T13:45:37.164Z,-90
2016-10-25T13:46:37.187Z,-91